createdAt,value
2019-04-14T00:02:27.289Z,20.25
2019-04-14T00:04:59.656Z,23.43
2019-04-14T00:07:30.290Z,20.70
2019-04-14T00:10:00.756Z,17.40
2019-04-14T00:12:34.263Z,17.02
2019-04-14T00:15:19.331Z,17.93
2019-04-14T00:17:43.536Z,20.82
2019-04-14T00:20:18.494Z,18.23
2019-04-14T00:22:53.424Z,20.30
2019-04-14T00:25:26.461Z,20.40
2019-04-14T00:27:56.841Z,19.67
2019-04-14T00:30:27.431Z,18.23
2019-04-14T00:33:01.805Z,19.30
2019-04-14T00:35:47.147Z,20.13
2019-04-14T00:38:27.997Z,22.87
2019-04-14T00:41:17.983Z,21.83
2019-04-14T00:44:03.550Z,20.87
2019-04-14T00:46:40.937Z,22.17
2019-04-14T00:49:11.496Z,21.63
2019-04-14T00:51:42.424Z,21.50
2019-04-14T00:54:13.261Z,20.00
2019-04-14T00:56:43.698Z,23.80
2019-04-14T00:59:14.024Z,21.37
2019-04-14T01:01:44.560Z,25.33
2019-04-14T01:04:14.963Z,26.15
2019-04-14T01:06:45.357Z,23.63
2019-04-14T01:09:17.173Z,24.57
2019-04-14T01:11:48.765Z,25.67
2019-04-14T01:14:19.170Z,24.80
2019-04-14T01:16:49.810Z,23.70
2019-04-14T01:19:20.191Z,26.70
2019-04-14T01:21:50.623Z,23.07
2019-04-14T01:24:21.021Z,21.30
2019-04-14T01:26:51.355Z,25.47
2019-04-14T01:29:21.592Z,23.38
2019-04-14T01:31:52.150Z,24.57
2019-04-14T01:34:23.717Z,24.47
2019-04-14T01:36:54.273Z,25.43
2019-04-14T01:39:24.953Z,25.27
2019-04-14T01:41:56.449Z,26.43
2019-04-14T01:44:27.061Z,24.37
2019-04-14T01:46:58.818Z,22.27
2019-04-14T01:49:29.167Z,25.07
2019-04-14T01:52:25.233Z,26.80
2019-04-14T01:55:20.700Z,27.23
2019-04-14T01:58:10.203Z,29.53
2019-04-14T02:01:09.146Z,27.50
2019-04-14T02:03:40.899Z,27.90
2019-04-14T02:06:11.516Z,25.60
2019-04-14T02:08:43.552Z,25.50
2019-04-14T02:11:14.019Z,27.60
2019-04-14T02:13:44.455Z,25.83
2019-04-14T02:16:23.997Z,27.87
2019-04-14T02:18:47.426Z,28.47
2019-04-14T02:21:19.433Z,28.75
2019-04-14T02:23:49.915Z,28.50
2019-04-14T02:26:20.229Z,29.27
2019-04-14T02:28:50.779Z,29.07
2019-04-14T02:31:35.719Z,27.50
2019-04-14T02:34:31.996Z,29.43
2019-04-14T02:36:58.737Z,31.63
2019-04-14T02:39:42.065Z,25.63
2019-04-14T02:42:17.937Z,29.63
2019-04-14T02:44:33.922Z,26.50
2019-04-14T02:47:11.666Z,26.80
2019-04-14T02:49:36.356Z,29.16
2019-04-14T02:52:04.775Z,29.73
2019-04-14T02:54:45.161Z,27.32
2019-04-14T02:57:10.071Z,30.67
2019-04-14T02:59:45.334Z,29.20
2019-04-14T03:02:22.994Z,30.77
2019-04-14T03:04:47.232Z,29.07
2019-04-14T03:07:21.962Z,28.83
2019-04-14T03:09:50.229Z,30.43
2019-04-14T03:12:29.102Z,30.50
2019-04-14T03:14:55.580Z,29.70
2019-04-14T03:17:36.875Z,31.33
2019-04-14T03:20:30.393Z,33.57
2019-04-14T03:23:13.860Z,29.70
2019-04-14T03:25:41.410Z,29.97
2019-04-14T03:28:31.810Z,30.63
2019-04-14T03:31:39.623Z,32.50
2019-04-14T03:37:04.752Z,28.93
2019-04-14T03:39:00.849Z,30.32
2019-04-14T03:43:48.456Z,28.60
2019-04-14T03:49:07.462Z,29.40
2019-04-14T03:51:48.590Z,33.30
2019-04-14T03:53:58.442Z,30.27
2019-04-14T03:56:51.427Z,34.57
2019-04-14T03:59:22.072Z,34.00
2019-04-14T04:01:52.610Z,30.17
2019-04-14T04:04:22.948Z,30.23
2019-04-14T04:06:53.241Z,33.60
2019-04-14T04:09:30.049Z,31.57
2019-04-14T04:12:00.581Z,32.67
2019-04-14T04:14:31.323Z,32.63
2019-04-14T04:17:25.562Z,30.93
2019-04-14T04:20:09.580Z,29.70
2019-04-14T04:23:03.529Z,32.97
2019-04-14T04:25:51.487Z,32.27
2019-04-14T04:28:29.942Z,34.40
2019-04-14T04:31:06.742Z,34.90
2019-04-14T04:33:43.982Z,36.10
2019-04-14T04:36:24.824Z,34.98
2019-04-14T04:39:19.747Z,34.00
2019-04-14T04:41:53.786Z,33.28
2019-04-14T04:44:24.781Z,30.67
2019-04-14T04:46:55.312Z,35.53
2019-04-14T04:49:27.674Z,32.13
2019-04-14T04:51:57.551Z,32.67
2019-04-14T04:54:27.979Z,33.18
2019-04-14T04:57:00.125Z,34.27
2019-04-14T04:59:30.286Z,35.73
2019-04-14T05:02:00.499Z,35.60
2019-04-14T05:04:30.845Z,32.43
2019-04-14T05:07:03.602Z,36.57
2019-04-14T05:09:51.537Z,36.27
2019-04-14T05:12:39.102Z,30.50
2019-04-14T05:15:29.095Z,36.47
2019-04-14T05:18:00.406Z,33.57
2019-04-14T05:20:31.380Z,28.63
2019-04-14T05:23:01.737Z,31.50
2019-04-14T05:25:32.002Z,34.73
2019-04-14T05:28:02.641Z,33.90
2019-04-14T05:30:32.991Z,37.07
2019-04-14T05:33:03.283Z,40.97
2019-04-14T05:35:33.501Z,33.57
2019-04-14T05:38:04.058Z,34.27
2019-04-14T05:40:34.807Z,33.53
2019-04-14T05:43:05.102Z,30.87
2019-04-14T05:45:35.608Z,35.07
2019-04-14T05:48:07.459Z,35.48
2019-04-14T05:50:37.987Z,33.77
2019-04-14T05:53:08.661Z,33.80
2019-04-14T05:55:39.534Z,34.47
2019-04-14T05:58:10.015Z,30.97
2019-04-14T06:00:43.729Z,32.43
2019-04-14T06:03:14.588Z,31.83
2019-04-14T06:05:45.081Z,33.03
2019-04-14T06:08:15.407Z,29.23
2019-04-14T06:10:45.585Z,29.63
2019-04-14T06:13:15.883Z,31.47
2019-04-14T06:15:46.173Z,29.90
2019-04-14T06:18:16.389Z,28.85
2019-04-14T06:20:46.680Z,30.17
2019-04-14T06:23:16.871Z,30.33
2019-04-14T06:25:47.195Z,27.10
2019-04-14T06:28:17.448Z,29.23
2019-04-14T06:31:04.326Z,26.75
2019-04-14T06:33:59.447Z,24.70
2019-04-14T06:36:51.517Z,25.77
2019-04-14T06:39:24.800Z,25.80
2019-04-14T06:41:55.121Z,26.33
2019-04-14T06:44:25.327Z,25.37
2019-04-14T06:46:56.556Z,22.20
2019-04-14T06:49:28.030Z,23.37
2019-04-14T06:51:58.822Z,23.27
2019-04-14T06:54:29.129Z,24.80
2019-04-14T06:56:59.390Z,23.57
2019-04-14T06:59:29.727Z,22.77
2019-04-14T07:02:01.878Z,24.93
2019-04-14T07:04:32.190Z,22.13
2019-04-14T07:07:02.766Z,23.77
2019-04-14T07:09:33.427Z,22.83
2019-04-14T07:12:04.154Z,24.27
2019-04-14T07:14:34.844Z,22.20
2019-04-14T07:17:05.320Z,23.17
2019-04-14T07:19:35.767Z,22.27
2019-04-14T07:22:07.020Z,23.45
2019-04-14T07:24:37.381Z,22.63
2019-04-14T07:27:08.045Z,23.43
2019-04-14T07:29:44.769Z,20.47
2019-04-14T07:32:27.764Z,22.00
2019-04-14T07:35:07.941Z,21.93
2019-04-14T07:38:03.129Z,20.13
2019-04-14T07:40:51.272Z,21.60
2019-04-14T07:43:31.595Z,20.07
2019-04-14T07:46:07.429Z,19.43
2019-04-14T07:48:43.840Z,21.45
2019-04-14T07:51:34.803Z,21.30
2019-04-14T07:54:21.865Z,21.50
2019-04-14T07:57:08.767Z,24.17
2019-04-14T07:59:50.573Z,19.10
2019-04-14T08:02:49.097Z,20.75
2019-04-14T08:05:31.159Z,18.48
2019-04-14T08:08:01.546Z,22.37
2019-04-14T08:10:31.822Z,17.93
2019-04-14T08:13:02.112Z,19.10
2019-04-14T08:15:32.344Z,16.67
2019-04-14T08:18:02.619Z,18.43
2019-04-14T08:20:32.855Z,19.13
2019-04-14T08:23:02.981Z,17.07
2019-04-14T08:25:33.299Z,17.57
2019-04-14T08:28:07.081Z,18.67
2019-04-14T08:30:40.809Z,19.17
2019-04-14T08:33:11.209Z,17.95
2019-04-14T08:35:41.494Z,20.40
2019-04-14T08:38:11.706Z,17.12
2019-04-14T08:40:41.977Z,18.80
2019-04-14T08:43:19.310Z,18.53
2019-04-14T08:46:14.556Z,20.13
2019-04-14T08:48:51.195Z,18.10
2019-04-14T08:51:43.759Z,17.27
2019-04-14T08:54:36.133Z,19.33
2019-04-14T08:57:35.429Z,17.25
2019-04-14T09:00:26.753Z,18.50
2019-04-14T09:03:11.510Z,16.93
2019-04-14T09:06:07.735Z,18.10
2019-04-14T09:08:49.378Z,17.17
2019-04-14T09:11:28.414Z,16.37
2019-04-14T09:14:01.291Z,17.67
2019-04-14T09:16:37.579Z,16.23
2019-04-14T09:19:10.283Z,15.90
2019-04-14T09:21:42.796Z,16.93
2019-04-14T09:24:15.400Z,14.85
2019-04-14T09:26:50.507Z,16.83
2019-04-14T09:29:20.539Z,16.87
2019-04-14T09:31:50.847Z,15.27
2019-04-14T09:34:21.183Z,15.43
2019-04-14T09:36:51.612Z,13.83
2019-04-14T09:39:21.992Z,15.93
2019-04-14T09:41:52.419Z,18.50
2019-04-14T09:44:22.719Z,15.30
2019-04-14T09:46:52.902Z,14.77
2019-04-14T09:49:23.266Z,14.70
2019-04-14T09:51:53.537Z,15.20
2019-04-14T09:54:26.713Z,14.33
2019-04-14T09:56:57.043Z,14.77
2019-04-14T09:59:27.483Z,15.97
2019-04-14T10:01:58.112Z,16.13
2019-04-14T10:04:28.855Z,16.77
2019-04-14T10:06:59.052Z,14.33
2019-04-14T10:09:29.445Z,18.00
2019-04-14T10:11:59.692Z,17.33
2019-04-14T10:14:42.252Z,15.43
2019-04-14T10:17:12.801Z,15.60
2019-04-14T10:19:43.230Z,14.97
2019-04-14T10:22:13.937Z,17.80
2019-04-14T10:24:44.080Z,17.50
2019-04-14T10:27:14.364Z,16.02
2019-04-14T10:29:44.814Z,15.07
2019-04-14T10:32:16.829Z,16.97
2019-04-14T10:34:47.100Z,15.57
2019-04-14T10:37:17.326Z,16.83
2019-04-14T10:39:47.623Z,16.47
2019-04-14T10:42:17.938Z,15.33
2019-04-14T10:44:48.283Z,16.83
2019-04-14T10:47:18.594Z,20.63
2019-04-14T10:49:48.940Z,16.73
2019-04-14T10:52:19.286Z,17.62
2019-04-14T10:54:49.658Z,17.37
2019-04-14T10:57:19.985Z,16.00
2019-04-14T10:59:50.247Z,18.60
2019-04-14T11:02:20.519Z,15.55
2019-04-14T11:04:50.837Z,15.73
2019-04-14T11:07:25.441Z,16.65
2019-04-14T11:09:55.619Z,18.10
2019-04-14T11:12:25.776Z,17.20
2019-04-14T11:14:56.105Z,16.47
2019-04-14T11:17:26.205Z,16.47
2019-04-14T11:19:56.430Z,16.70
2019-04-14T11:22:29.812Z,15.60
2019-04-14T11:25:03.129Z,15.30
2019-04-14T11:27:33.376Z,17.13
2019-04-14T11:30:03.982Z,15.20
2019-04-14T11:32:45.660Z,16.33
2019-04-14T11:35:34.795Z,18.17
2019-04-14T11:38:23.859Z,15.50
2019-04-14T11:40:56.676Z,16.43
2019-04-14T11:43:27.043Z,16.23
2019-04-14T11:45:57.367Z,16.53
2019-04-14T11:48:27.670Z,15.70
2019-04-14T11:50:58.064Z,16.07
2019-04-14T11:53:28.365Z,15.73
2019-04-14T11:55:58.591Z,15.23
2019-04-14T11:58:29.387Z,16.00
2019-04-14T12:01:27.560Z,15.37
2019-04-14T12:04:15.436Z,19.10
2019-04-14T12:07:07.655Z,15.43
2019-04-14T12:09:43.815Z,17.83
2019-04-14T12:12:14.125Z,15.38
2019-04-14T12:14:44.591Z,16.20
2019-04-14T12:17:15.036Z,14.45
2019-04-14T12:19:45.464Z,15.30
2019-04-14T12:22:15.786Z,14.60
2019-04-14T12:24:46.430Z,14.40
2019-04-14T12:27:16.620Z,15.35
2019-04-14T12:29:47.944Z,13.63
2019-04-14T12:32:22.189Z,14.63
2019-04-14T12:34:54.346Z,13.80
2019-04-14T12:37:30.109Z,14.38
2019-04-14T12:40:03.387Z,15.40
2019-04-14T12:43:07.794Z,13.27
2019-04-14T12:45:55.716Z,13.13
2019-04-14T12:48:43.440Z,14.23
2019-04-14T12:51:32.676Z,12.90
2019-04-14T12:54:03.028Z,15.73
2019-04-14T12:56:33.297Z,12.73
2019-04-14T12:59:23.256Z,12.80
2019-04-14T13:02:16.057Z,13.93
2019-04-14T13:04:46.395Z,12.17
2019-04-14T13:07:16.748Z,12.50
2019-04-14T13:09:47.238Z,11.73
2019-04-14T13:12:17.529Z,13.00
2019-04-14T13:14:47.891Z,11.53
2019-04-14T13:17:18.110Z,12.00
2019-04-14T13:19:48.371Z,11.53
2019-04-14T13:22:18.674Z,12.03
2019-04-14T13:24:49.075Z,13.23
2019-04-14T13:27:19.433Z,12.07
2019-04-14T13:29:49.818Z,12.70
2019-04-14T13:32:20.059Z,11.33
2019-04-14T13:34:50.322Z,11.20
2019-04-14T13:37:20.708Z,12.88
2019-04-14T13:39:51.063Z,13.73
2019-04-14T13:42:21.372Z,13.53
2019-04-14T13:44:51.980Z,12.60
2019-04-14T13:47:22.170Z,14.63
2019-04-14T13:49:52.467Z,11.93
2019-04-14T13:52:22.906Z,12.60
2019-04-14T13:54:53.288Z,13.50
2019-04-14T13:57:23.611Z,12.35
2019-04-14T13:59:54.044Z,13.07
2019-04-14T14:02:24.346Z,14.83
2019-04-14T14:04:54.587Z,14.23
2019-04-14T14:07:24.888Z,12.85
2019-04-14T14:09:57.165Z,13.00
2019-04-14T14:12:32.762Z,14.07
2019-04-14T14:15:23.920Z,13.33
2019-04-14T14:18:11.341Z,17.70
2019-04-14T14:21:09.765Z,13.87
2019-04-14T14:23:59.226Z,15.30
2019-04-14T14:26:30.471Z,13.27
2019-04-14T14:29:03.262Z,13.73
2019-04-14T14:31:33.970Z,12.97
2019-04-14T14:34:04.791Z,14.17
2019-04-14T14:36:35.537Z,14.00
2019-04-14T14:39:15.275Z,12.43
2019-04-14T14:41:48.367Z,13.40
2019-04-14T14:44:25.658Z,13.78
2019-04-14T14:47:07.914Z,13.73
2019-04-14T14:50:20.890Z,11.20
2019-04-14T14:52:51.426Z,12.73
2019-04-14T14:55:21.987Z,13.03
2019-04-14T14:57:52.637Z,11.30
2019-04-14T15:00:30.499Z,10.93
2019-04-14T15:03:01.285Z,10.27
2019-04-14T15:05:32.000Z,11.90
2019-04-14T15:08:08.237Z,12.30
2019-04-14T15:10:41.704Z,11.80
2019-04-14T15:13:11.501Z,14.50
2019-04-14T15:15:42.069Z,12.43
2019-04-14T15:18:12.852Z,11.50
2019-04-14T15:20:43.507Z,13.47
2019-04-14T15:23:24.678Z,12.83
2019-04-14T15:25:49.673Z,12.65
2019-04-14T15:28:20.886Z,13.10
2019-04-14T15:30:51.465Z,13.47
2019-04-14T15:33:22.079Z,12.70
2019-04-14T15:35:52.632Z,13.63
2019-04-14T15:38:23.305Z,12.43
2019-04-14T15:40:53.879Z,12.33
2019-04-14T15:43:24.409Z,11.60
2019-04-14T15:45:55.151Z,12.65
2019-04-14T15:48:25.843Z,15.23
2019-04-14T15:50:56.459Z,11.70
2019-04-14T15:53:37.298Z,13.50
2019-04-14T15:55:59.486Z,11.60
2019-04-14T15:58:36.399Z,12.63
2019-04-14T16:01:41.222Z,13.00
2019-04-14T16:04:19.431Z,15.77
2019-04-14T16:07:05.897Z,12.93
2019-04-14T16:09:54.133Z,10.63
2019-04-14T16:12:55.587Z,12.00
2019-04-14T16:15:45.158Z,13.58
2019-04-14T16:18:40.659Z,11.17
2019-04-14T16:21:11.359Z,11.60
2019-04-14T16:23:50.354Z,13.73
2019-04-14T16:26:36.402Z,10.50
2019-04-14T16:29:34.526Z,13.47
2019-04-14T16:32:37.798Z,14.67
2019-04-14T16:35:12.654Z,14.50
2019-04-14T16:37:42.881Z,11.20
2019-04-14T16:40:13.303Z,11.27
2019-04-14T16:42:43.534Z,11.60
2019-04-14T16:45:15.020Z,11.30
2019-04-14T16:47:45.410Z,10.77
2019-04-14T16:50:15.661Z,12.68
2019-04-14T16:52:54.165Z,14.00
2019-04-14T16:55:32.833Z,14.80
2019-04-14T16:58:18.493Z,13.83
2019-04-14T17:00:53.117Z,12.97
2019-04-14T17:03:23.199Z,12.15
2019-04-14T17:05:53.771Z,14.03
2019-04-14T17:08:24.006Z,13.78
2019-04-14T17:10:54.238Z,14.10
2019-04-14T17:13:26.150Z,13.90
2019-04-14T17:16:13.953Z,15.57
2019-04-14T17:18:49.109Z,16.53
2019-04-14T17:21:38.196Z,19.77
2019-04-14T17:24:16.694Z,14.67
2019-04-14T17:26:56.667Z,16.53
2019-04-14T17:29:44.187Z,15.93
2019-04-14T17:32:30.355Z,16.23
2019-04-14T17:35:19.650Z,17.27
2019-04-14T17:37:56.344Z,15.57
2019-04-14T17:40:34.305Z,16.97
2019-04-14T17:43:13.037Z,14.83
2019-04-14T17:46:07.853Z,13.20
2019-04-14T17:48:51.001Z,13.23
2019-04-14T17:51:42.208Z,12.40
2019-04-14T17:54:31.680Z,11.38
2019-04-14T17:57:29.606Z,11.33
2019-04-14T18:00:21.136Z,12.70
2019-04-14T18:03:06.352Z,11.23
2019-04-14T18:05:47.170Z,11.47
2019-04-14T18:08:31.007Z,11.07
2019-04-14T18:11:23.143Z,12.07
2019-04-14T18:14:12.815Z,11.73
2019-04-14T18:16:57.358Z,11.47
2019-04-14T18:19:39.701Z,12.03
2019-04-14T18:22:09.857Z,12.80
2019-04-14T18:24:42.511Z,13.57
2019-04-14T18:27:12.022Z,12.87
2019-04-14T18:30:04.333Z,13.27
2019-04-14T18:32:39.507Z,12.03
2019-04-14T18:35:41.269Z,14.07
2019-04-14T18:38:29.057Z,13.30
2019-04-14T18:41:07.796Z,13.57
2019-04-14T18:44:02.518Z,13.43
2019-04-14T18:46:51.499Z,13.87
2019-04-14T18:49:27.296Z,13.70
2019-04-14T18:52:09.911Z,15.00
2019-04-14T18:55:17.155Z,13.33
2019-04-14T18:58:02.616Z,13.97
2019-04-14T19:00:57.176Z,12.93
2019-04-14T19:03:27.681Z,11.50
2019-04-14T19:05:58.197Z,15.83
2019-04-14T19:08:28.570Z,14.27
2019-04-14T19:11:16.288Z,22.90
2019-04-14T19:13:47.396Z,17.47
2019-04-14T19:16:22.634Z,16.00
2019-04-14T19:18:56.286Z,14.23
2019-04-14T19:21:28.734Z,17.53
2019-04-14T19:23:59.042Z,16.30
2019-04-14T19:26:29.317Z,15.80
2019-04-14T19:28:59.502Z,17.23
2019-04-14T19:31:29.807Z,16.57
2019-04-14T19:34:00.092Z,17.73
2019-04-14T19:36:30.135Z,16.10
2019-04-14T19:39:00.318Z,17.97
2019-04-14T19:41:30.481Z,15.17
2019-04-14T19:44:00.677Z,15.47
2019-04-14T19:46:30.898Z,18.73
2019-04-14T19:49:01.061Z,15.00
2019-04-14T19:51:31.221Z,16.10
2019-04-14T19:54:01.710Z,16.70
2019-04-14T19:56:32.419Z,18.50
2019-04-14T19:59:03.895Z,16.63
2019-04-14T20:01:34.540Z,14.50
2019-04-14T20:04:05.147Z,15.07
2019-04-14T20:06:35.675Z,17.17
2019-04-14T20:09:08.590Z,17.60
2019-04-14T20:11:39.032Z,15.67
2019-04-14T20:14:09.560Z,17.50
2019-04-14T20:17:06.141Z,24.60
2019-04-14T20:19:54.534Z,19.77
2019-04-14T20:22:30.646Z,19.30
2019-04-14T20:25:33.665Z,21.50
2019-04-14T20:28:03.279Z,22.43
2019-04-14T20:30:39.988Z,20.57
2019-04-14T20:33:10.702Z,22.33
2019-04-14T20:35:41.244Z,21.90
2019-04-14T20:38:11.743Z,19.40
2019-04-14T20:40:42.486Z,20.10
2019-04-14T20:43:13.324Z,19.57
2019-04-14T20:45:44.985Z,19.83
2019-04-14T20:48:17.022Z,21.47
2019-04-14T20:50:47.877Z,19.87
2019-04-14T20:53:18.391Z,20.55
2019-04-14T20:55:57.408Z,16.97
2019-04-14T20:58:31.793Z,20.90
2019-04-14T21:01:05.581Z,21.05
2019-04-14T21:03:52.878Z,20.07
2019-04-14T21:06:45.158Z,20.77
2019-04-14T21:09:22.685Z,22.17
2019-04-14T21:12:11.385Z,18.43
2019-04-14T21:15:03.813Z,18.87
2019-04-14T21:17:57.585Z,19.87
2019-04-14T21:20:46.278Z,23.40
2019-04-14T21:23:33.755Z,19.27
2019-04-14T21:26:09.744Z,18.40
2019-04-14T21:28:50.044Z,19.73
2019-04-14T21:31:40.225Z,19.42
2019-04-14T21:34:32.162Z,23.47
2019-04-14T21:37:12.171Z,20.10
2019-04-14T21:40:07.208Z,19.80
2019-04-14T21:42:37.877Z,22.80
2019-04-14T21:45:08.496Z,22.43
2019-04-14T21:47:38.722Z,24.63
2019-04-14T21:50:09.260Z,22.63
2019-04-14T21:52:42.266Z,22.00
2019-04-14T21:55:12.801Z,22.80
2019-04-14T21:57:52.071Z,20.37
2019-04-14T22:01:40.475Z,23.62
2019-04-14T22:04:20.972Z,23.20
2019-04-14T22:06:51.565Z,28.10
2019-04-14T22:09:33.656Z,23.52
2019-04-14T22:12:06.302Z,25.00
2019-04-14T22:14:36.584Z,20.73
2019-04-14T22:17:07.203Z,23.03
2019-04-14T22:19:37.551Z,21.90
2019-04-14T22:22:07.832Z,20.47
2019-04-14T22:24:38.012Z,21.60
2019-04-14T22:27:08.274Z,24.70
2019-04-14T22:29:38.572Z,22.27
2019-04-14T22:32:08.788Z,24.87
2019-04-14T22:34:38.991Z,22.03
2019-04-14T22:37:09.974Z,23.27
2019-04-14T22:39:40.190Z,22.37
2019-04-14T22:42:10.736Z,25.63
2019-04-14T22:44:40.961Z,23.60
2019-04-14T22:47:11.265Z,21.20
2019-04-14T22:49:41.439Z,25.53
2019-04-14T22:52:11.846Z,21.12
2019-04-14T22:54:42.088Z,22.10
2019-04-14T22:57:12.383Z,23.07
2019-04-14T22:59:42.455Z,24.23
2019-04-14T23:02:20.267Z,24.50
2019-04-14T23:05:10.683Z,25.17
2019-04-14T23:07:54.390Z,19.37
2019-04-14T23:10:39.840Z,26.37
2019-04-14T23:13:19.471Z,23.40
2019-04-14T23:16:08.027Z,24.00
2019-04-14T23:18:56.124Z,25.47
2019-04-14T23:21:46.014Z,23.33
2019-04-14T23:24:21.363Z,26.50
2019-04-14T23:26:53.205Z,23.23
2019-04-14T23:29:24.033Z,27.77
2019-04-14T23:31:54.412Z,23.77
2019-04-14T23:34:24.883Z,24.87
2019-04-14T23:36:55.318Z,26.33
2019-04-14T23:39:25.841Z,22.60
2019-04-14T23:41:56.426Z,24.23
2019-04-14T23:44:26.914Z,24.57
2019-04-14T23:46:57.256Z,24.60
2019-04-14T23:49:27.751Z,27.00
2019-04-14T23:51:58.185Z,24.03
2019-04-14T23:54:28.695Z,22.93
2019-04-14T23:57:05.469Z,22.30
2019-04-14T23:59:31.221Z,22.95
